Time;durP1;ratioP1;P1;durP2;ratioP2;P2;SDS_P1;SDS_P2;PMS_P1;PMS_P2;Temp;Humidity;BMP_temperature;BMP_pressure;BME280_temperature;BME280_humidity;BME280_pressure;Samples;Min_cycle;Max_cycle;Signal;HPM_P1;HPM_P2
2022/02/08 20:44:18;;;;;;;7.42;1.90;;;;;;;3.60;92.86;99420.41;1866445;74;22059;-63
2022/02/08 20:47:00;;;;;;;12.60;2.45;;;;;;;3.51;93.10;99420.64;1825406;77;21003;-63
2022/02/08 20:49:18;;;;;;;9.43;3.05;;;;;;;3.49;93.06;99424.98;1812695;77;21675;-63
2022/02/08 20:51:46;;;;;;;;;;;;;;;3.53;93.01;99431.78;1830093;77;21008;-64
2022/02/08 20:54:25;;;;;;;11.73;2.42;;;;;;;3.51;92.74;99436.97;1817793;77;20169;-64
2022/02/08 20:57:00;;;;;;;10.13;3.02;;;;;;;3.50;92.88;99427.95;1821868;77;21133;-63
2022/02/08 20:59:15;;;;;;;11.65;2.15;;;;;;;3.48;92.78;99445.23;1823048;77;20976;-64
2022/02/08 21:01:45;;;;;;;9.28;2.60;;;;;;;3.46;92.72;99449.57;1825911;77;21434;-63
2022/02/08 21:06:52;;;;;;;9.93;2.00;;;;;;;3.45;92.63;99459.50;1826071;77;21606;-63
2022/02/08 21:09:23;;;;;;;13.03;2.67;;;;;;;3.44;92.59;99457.78;1832748;77;21054;-63
2022/02/08 21:11:50;;;;;;;10.03;2.08;;;;;;;3.42;92.58;99460.83;1780572;79;21672;-63
2022/02/08 21:14:17;;;;;;;11.00;2.50;;;;;;;3.36;92.36;99458.82;1755393;80;21060;-63
2022/02/08 21:16:51;;;;;;;9.50;2.72;;;;;;;3.35;92.41;99459.68;1762252;80;21002;-64
2022/02/08 21:19:25;;;;;;;13.05;2.55;;;;;;;3.34;92.47;99468.31;1750651;80;22319;-64
2022/02/08 21:21:55;;;;;;;11.78;2.50;;;;;;;3.32;92.45;99480.39;1744346;80;21059;-63
2022/02/08 21:24:24;;;;;;;8.45;2.30;;;;;;;3.28;92.39;99467.62;1744701;79;21013;-63
2022/02/08 21:26:55;;;;;;;8.50;2.20;;;;;;;3.26;92.21;99465.05;1758258;80;21099;-63
2022/02/08 21:53:29;;;;;;;12.58;3.15;;;;;;;3.18;92.65;99492.74;1752959;80;21617;-63
2022/02/08 21:55:59;;;;;;;14.98;3.45;;;;;;;3.19;92.69;99502.17;1749926;80;21523;-63
2022/02/08 21:58:24;;;;;;;17.73;4.53;;;;;;;3.22;92.84;99491.81;1754207;81;21041;-64
2022/02/08 22:00:54;;;;;;;11.65;3.58;;;;;;;3.22;92.71;99493.11;1750113;81;20946;-62
2022/02/08 22:03:20;;;;;;;10.20;2.85;;;;;;;3.22;92.67;99499.56;1781503;80;21510;-63
2022/02/08 22:05:54;;;;;;;12.47;3.15;;;;;;;3.22;92.78;99517.62;1771207;80;21521;-62
2022/02/08 22:08:37;;;;;;;13.72;2.95;;;;;;;3.25;92.80;99502.48;1762273;80;21004;-63
2022/02/08 22:19:05;;;;;;;13.85;3.70;;;;;;;3.24;92.68;99518.41;1740399;80;21544;-63
2022/02/08 22:21:40;;;;;;;20.45;3.52;;;;;;;3.25;92.84;99527.87;1750089;80;20943;-62
2022/02/08 22:24:16;;;;;;;10.43;2.80;;;;;;;3.25;92.80;99533.03;1748780;80;21033;-63
2022/02/08 22:26:57;;;;;;;15.88;2.65;;;;;;;3.26;92.85;99550.20;1739389;81;21031;-63
2022/02/08 22:29:30;;;;;;;16.87;3.30;;;;;;;3.29;92.85;99547.56;1759484;80;21642;-63
2022/02/08 22:31:56;;;;;;;14.75;3.17;;;;;;;3.27;92.76;99562.22;1747626;81;22444;-63
2022/02/08 22:34:25;;;;;;;12.18;2.80;;;;;;;3.29;92.81;99563.05;1762672;79;21001;-64
2022/02/08 22:36:57;;;;;;;15.18;3.25;;;;;;;3.31;92.83;99556.12;1767621;79;20935;-63
2022/02/08 22:39:28;;;;;;;11.63;3.15;;;;;;;3.30;92.67;99566.02;1777250;79;21040;-63
2022/02/08 22:44:30;;;;;;;15.28;3.12;;;;;;;3.28;92.64;99566.52;1782985;78;21442;-63
2022/02/08 22:46:56;;;;;;;15.38;3.55;;;;;;;3.29;92.70;99557.88;1745454;80;21482;-63
2022/02/08 22:49:22;;;;;;;13.75;2.62;;;;;;;3.29;92.66;99563.05;1766743;78;20978;-63
2022/02/08 22:51:48;;;;;;;8.85;2.30;;;;;;;3.29;92.58;99561.75;1781598;79;20969;-63
2022/02/08 22:54:15;;;;;;;9.15;2.10;;;;;;;3.33;92.65;99562.53;1790547;78;20902;-63
2022/02/08 22:56:44;;;;;;;14.25;2.65;;;;;;;3.32;92.51;99563.42;1780733;78;21121;-63
2022/02/08 22:59:11;;;;;;;9.73;2.37;;;;;;;3.30;92.52;99569.89;1764912;78;20871;-63
2022/02/08 23:01:39;;;;;;;15.83;2.67;;;;;;;3.31;92.52;99569.03;1778145;78;20946;-63
2022/02/08 23:04:05;;;;;;;;;;;;;;;3.30;92.35;99572.47;1782058;78;21397;-63
2022/02/08 23:06:33;;;;;;;14.38;3.40;;;;;;;3.38;92.60;99585.67;1782142;79;20481;-64
2022/02/08 23:09:04;;;;;;;;;;;;;;;3.39;92.51;99589.95;1776997;78;21050;-64
2022/02/08 23:11:49;;;;;;;13.55;2.72;;;;;;;3.41;92.47;99594.64;1787475;79;20416;-63
2022/02/08 23:14:07;;;;;;;15.05;4.05;;;;;;;3.39;92.44;99588.66;1771830;79;20887;-63
2022/02/08 23:38:07;;;;;;;15.35;3.33;;;;;;;3.22;92.30;99628.56;1780906;79;20899;-63
2022/02/08 23:40:34;;;;;;;12.37;3.70;;;;;;;3.17;92.39;99623.93;1790478;78;20974;-63
2022/02/08 23:43:00;;;;;;;14.25;3.20;;;;;;;3.19;92.53;99630.33;1775585;78;20956;-63
2022/02/08 23:45:27;;;;;;;16.93;3.50;;;;;;;3.19;92.57;99624.73;1777977;79;20950;-63
2022/02/08 23:48:11;;;;;;;13.93;3.20;;;;;;;3.20;92.55;99625.16;1781033;79;21083;-63
2022/02/08 23:50:35;;;;;;;19.40;4.35;;;;;;;3.20;92.60;99622.58;1784027;79;21050;-63
2022/02/08 23:53:06;;;;;;;15.68;3.60;;;;;;;3.19;92.56;99624.73;1784623;79;20934;-63
2022/02/08 23:55:38;;;;;;;18.32;3.52;;;;;;;3.20;92.58;99643.22;1794980;79;20957;-63
2022/02/08 23:57:59;;;;;;;16.70;4.35;;;;;;;3.20;92.58;99644.51;1762488;78;20930;-63
